Time;durP1;ratioP1;P1;durP2;ratioP2;P2;SDS_P1;SDS_P2;PMS_P1;PMS_P2;Temp;Humidity;BMP_temperature;BMP_pressure;BME280_temperature;BME280_humidity;BME280_pressure;Samples;Min_cycle;Max_cycle;Signal;HPM_P1;HPM_P2
2022/12/25 00:00:18;;;;;;;;;11.33;11.33;;;;;12.66;79.98;100934.47;5057135;28;45545;-71
2022/12/25 00:02:43;;;;;;;;;14.67;13.00;;;;;12.85;80.14;100960.16;5057489;28;45375;-73
2022/12/25 00:05:09;;;;;;;;;15.00;15.00;;;;;12.40;79.76;100885.53;5057053;28;45612;-73
2022/12/25 00:07:34;;;;;;;;;15.67;14.00;;;;;12.87;79.75;100968.84;5056641;28;55654;-72
2022/12/25 00:09:59;;;;;;;;;16.33;16.33;;;;;12.53;79.88;100911.84;5057210;28;45330;-73
2022/12/25 00:12:25;;;;;;;;;16.67;15.00;;;;;12.87;80.05;100968.84;5057405;28;45570;-73
2022/12/25 00:14:50;;;;;;;;;13.33;11.33;;;;;12.77;79.95;100952.06;5056645;28;46130;-73
2022/12/25 00:17:15;;;;;;;;;18.00;15.33;;;;;12.88;80.25;100972.34;5057069;28;45454;-72
2022/12/25 00:19:41;;;;;;;;;15.00;13.33;;;;;12.72;80.08;100947.19;5056945;28;45170;-73
2022/12/25 00:22:06;;;;;;;;;14.00;14.00;;;;;12.89;80.10;100966.03;5057342;28;45408;-73
2022/12/25 00:24:32;;;;;;;;;19.33;14.00;;;;;12.28;79.79;100860.13;5056275;28;59899;-73
2022/12/25 00:26:57;;;;;;;;;15.33;15.33;;;;;12.84;80.24;100957.66;5056863;28;45319;-72
2022/12/25 00:29:22;;;;;;;;;13.00;11.00;;;;;12.16;79.79;100835.50;5056866;28;45527;-72
2022/12/25 00:31:48;;;;;;;;;20.67;19.67;;;;;12.67;79.99;100908.66;5057207;28;45354;-72
2022/12/25 00:34:13;;;;;;;;;17.00;15.33;;;;;12.54;80.43;100884.19;5056641;28;46523;-73
2022/12/25 00:36:39;;;;;;;;;12.33;12.33;;;;;12.33;79.67;100848.00;5056603;28;45466;-73
2022/12/25 00:39:05;;;;;;;;;14.67;13.33;;;;;12.99;79.59;100967.59;5057466;28;45309;-72
2022/12/25 00:44:15;;;;;;;;;16.67;14.33;;;;;12.99;80.00;100972.94;5056418;28;45947;-71
2022/12/25 00:46:40;;;;;;;;;14.67;14.00;;;;;12.85;79.96;100949.50;5056479;28;45365;-74
2022/12/25 00:49:06;;;;;;;;;15.00;13.67;;;;;12.99;79.81;100956.09;5056666;28;45281;-74
2022/12/25 00:51:32;;;;;;;;;18.67;17.67;;;;;12.95;79.53;100952.06;5056791;28;45345;-71
2022/12/25 00:53:57;;;;;;;;;13.33;12.33;;;;;12.74;80.18;100915.88;5056471;28;46246;-72
2022/12/25 00:56:23;;;;;;;;;22.33;21.33;;;;;13.00;79.92;100947.94;5056348;28;45281;-73
2022/12/25 00:58:48;;;;;;;;;16.33;14.00;;;;;12.98;79.90;100944.56;5056022;28;49326;-71
2022/12/25 01:01:13;;;;;;;;;19.67;15.00;;;;;13.04;79.73;100938.63;5056698;28;45404;-72
2022/12/25 01:03:39;;;;;;;;;22.33;18.67;;;;;12.82;79.73;100896.44;5055788;28;59503;-73
2022/12/25 01:06:07;;;;;;;;;15.67;14.33;;;;;12.97;79.78;100920.72;5038032;28;45499;-72
2022/12/25 01:08:35;;;;;;;;;15.67;15.67;;;;;13.07;79.59;100946.34;5056432;28;45499;-73
2022/12/25 01:11:06;;;;;;;;;18.00;16.00;;;;;12.29;79.80;100811.97;5038439;28;45590;-73
2022/12/25 01:13:34;;;;;;;;;17.67;15.00;;;;;12.92;79.59;100921.19;5055933;28;45557;-74
2022/12/25 01:16:12;;;;;;;;;19.67;17.00;;;;;12.92;79.91;100910.50;5057033;28;45580;-74
2022/12/25 01:18:37;;;;;;;;;18.00;18.00;;;;;12.71;79.53;100873.50;5041786;28;45318;-72
2022/12/25 01:21:10;;;;;;;;;24.33;19.33;;;;;12.96;79.61;100919.88;5061235;28;45582;-73
2022/12/25 01:23:38;;;;;;;;;19.67;15.33;;;;;12.61;79.32;100851.41;5059684;28;46325;-74
2022/12/25 01:26:05;;;;;;;;;14.67;13.67;;;;;12.35;79.44;100806.03;5041604;28;45419;-73
2022/12/25 01:28:30;;;;;;;;;18.67;16.67;;;;;12.66;79.81;100856.28;5060128;28;45388;-74
2022/12/25 01:30:55;;;;;;;;;17.00;13.00;;;;;13.16;79.42;100941.88;5041486;28;45328;-74
2022/12/25 01:33:21;;;;;;;;;20.67;17.67;;;;;12.90;79.29;100901.00;5041178;28;51449;-72
2022/12/25 01:35:46;;;;;;;;;16.67;14.67;;;;;12.83;79.36;100898.13;5058858;28;58904;-74
2022/12/25 01:38:11;;;;;;;;;16.67;14.00;;;;;12.92;79.37;100905.19;5059327;28;45457;-71
2022/12/25 01:40:37;;;;;;;;;15.00;15.00;;;;;12.85;79.17;100896.13;5059675;28;45578;-73
2022/12/25 01:43:02;;;;;;;;;19.00;17.00;;;;;12.90;79.38;100909.84;5059326;28;46704;-72
2022/12/25 01:45:37;;;;;;;;;15.67;14.67;;;;;12.45;79.35;100836.13;5059538;28;45594;-73
2022/12/25 01:48:08;;;;;;;;;15.33;14.00;;;;;12.48;79.40;100859.81;5059527;28;45347;-72
2022/12/25 01:50:36;;;;;;;;;13.67;13.67;;;;;13.00;79.97;100950.59;5059449;28;45517;-71
2022/12/25 01:53:02;;;;;;;;;14.00;12.33;;;;;12.40;79.48;100834.88;5058842;28;45318;-72
2022/12/25 01:55:28;;;;;;;;;10.67;9.33;;;;;12.72;79.76;100907.19;5059137;28;45233;-72
2022/12/25 01:57:54;;;;;;;;;11.67;10.00;;;;;13.00;79.72;100942.59;5059218;28;45369;-69
2022/12/25 02:00:19;;;;;;;;;12.00;12.00;;;;;12.82;80.02;100907.13;5059248;28;45589;-73
2022/12/25 02:02:45;;;;;;;;;9.67;8.67;;;;;13.00;80.00;100949.75;5040744;28;48319;-72
2022/12/25 02:05:29;;;;;;;;;7.00;7.00;;;;;12.88;79.64;100911.81;5058834;28;45315;-72
2022/12/25 02:07:59;;;;;;;;;10.00;10.00;;;;;12.62;79.62;100846.94;5058976;28;45447;-71
2022/12/25 02:10:24;;;;;;;;;10.67;10.00;;;;;12.93;79.32;100892.66;5059529;28;45278;-73
2022/12/25 02:12:50;;;;;;;;;9.33;9.33;;;;;13.15;79.81;100944.72;5058732;28;45317;-72
2022/12/25 02:15:24;;;;;;;;;10.33;10.33;;;;;13.01;79.34;100922.94;5058534;28;45225;-73
2022/12/25 02:18:20;;;;;;;;;12.00;11.00;;;;;13.16;79.41;100944.56;5058919;28;45252;-72
2022/12/25 02:21:06;;;;;;;;;12.33;10.33;;;;;13.20;79.12;100935.25;5058872;28;45322;-73
2022/12/25 02:23:53;;;;;;;;;14.67;10.67;;;;;12.98;79.44;100904.53;5058535;28;46631;-72
2022/12/25 02:26:54;;;;;;;;;15.00;15.00;;;;;12.97;79.57;100897.53;5059099;28;45475;-72
2022/12/25 02:30:01;;;;;;;;;11.00;11.00;;;;;13.14;79.62;100925.19;5058148;28;45444;-72
2022/12/25 02:34:01;;;;;;;;;14.67;11.00;;;;;13.16;79.56;100935.69;5058545;28;45643;-74
2022/12/25 02:35:49;;;;;;;;;12.33;12.00;;;;;12.93;79.98;100893.50;5058118;28;45282;-72
2022/12/25 02:38:32;;;;;;;;;10.67;10.67;;;;;13.09;79.92;100909.66;5058474;28;45323;-73
2022/12/25 02:41:05;;;;;;;;;10.33;10.00;;;;;13.03;80.40;100904.94;5058449;28;45262;-70
2022/12/25 03:11:29;;;;;;;;;12.33;11.33;;;;;13.21;79.46;100902.22;5057919;28;45862;-72
2022/12/25 03:11:46;;;;;;;;;11.67;11.67;;;;;12.49;80.07;100761.97;5057742;28;45541;-73
2022/12/25 03:16:58;;;;;;;;;13.00;13.00;;;;;13.24;79.55;100877.06;5058049;28;45405;-72
2022/12/25 03:27:50;;;;;;;;;15.67;14.33;;;;;13.23;80.08;100878.06;5058129;28;45565;-73
2022/12/25 03:33:13;;;;;;;;;23.33;23.33;;;;;12.63;80.26;100774.75;5057537;28;45403;-72
2022/12/25 03:36:04;;;;;;;;;23.00;19.33;;;;;13.16;80.73;100856.47;5057959;28;45388;-73
2022/12/25 03:42:30;;;;;;;;;30.67;25.00;;;;;13.09;80.82;100850.09;5057323;28;46408;-73
2022/12/25 04:37:12;;;;;;;;;19.00;18.67;;;;;12.38;82.17;100731.06;5057273;28;45326;-71
2022/12/25 04:39:37;;;;;;;;;18.67;17.33;;;;;12.59;82.14;100745.88;5056448;28;45431;-71
2022/12/25 04:42:03;;;;;;;;;21.00;20.00;;;;;12.59;82.18;100745.88;5038692;28;45443;-72
2022/12/25 04:44:28;;;;;;;;;21.00;21.00;;;;;12.70;82.11;100766.94;5056979;28;45226;-74
2022/12/25 04:46:53;;;;;;;;;27.00;22.33;;;;;12.70;81.92;100766.94;5056641;28;46460;-72
2022/12/25 04:49:19;;;;;;;;;26.67;21.00;;;;;12.22;82.08;100700.81;5057515;28;45392;-73
2022/12/25 04:51:44;;;;;;;;;21.67;21.33;;;;;12.58;81.90;100760.19;5059042;28;45215;-73
2022/12/25 04:54:10;;;;;;;;;21.67;21.00;;;;;12.93;81.85;100816.13;5060361;28;45509;-72
2022/12/25 04:56:35;;;;;;;;;19.67;18.67;;;;;12.94;81.79;100820.47;5060036;28;45708;-73
2022/12/25 04:59:00;;;;;;;;;20.67;19.00;;;;;12.84;81.91;100790.41;5042020;28;45494;-72
2022/12/25 05:01:26;;;;;;;;;16.33;16.00;;;;;12.83;81.84;100775.38;5059985;28;45301;-73
2022/12/25 05:03:51;;;;;;;;;22.00;21.67;;;;;12.37;80.89;100694.72;5060244;28;45250;-72
2022/12/25 05:06:17;;;;;;;;;21.67;19.00;;;;;12.92;81.69;100770.91;5059702;28;47269;-73
2022/12/25 05:08:42;;;;;;;;;21.00;21.00;;;;;12.94;81.33;100760.91;5059793;28;51630;-73
2022/12/25 05:11:10;;;;;;;;;22.67;21.33;;;;;12.91;81.51;100730.06;5059958;28;45424;-71
2022/12/25 05:13:36;;;;;;;;;19.67;18.67;;;;;12.45;81.92;100646.81;5059741;28;45506;-73
2022/12/25 05:16:06;;;;;;;;;19.67;18.00;;;;;12.89;81.76;100702.69;5041378;28;48107;-72
2022/12/25 05:18:31;;;;;;;;;20.67;19.33;;;;;12.92;81.48;100710.38;5059532;28;45470;-72
2022/12/25 05:20:57;;;;;;;;;20.00;19.33;;;;;12.94;81.75;100735.06;5059305;28;47056;-73
2022/12/25 05:23:22;;;;;;;;;24.33;21.67;;;;;12.27;81.72;100637.19;5059995;28;45507;-73
2022/12/25 05:25:47;;;;;;;;;23.67;22.33;;;;;12.98;81.66;100754.25;5041340;28;48274;-74
2022/12/25 05:28:13;;;;;;;;;24.67;23.33;;;;;12.80;81.66;100719.66;5059441;28;45312;-73
2022/12/25 05:30:38;;;;;;;;;27.33;23.00;;;;;12.98;81.54;100747.09;5059508;28;45475;-72
2022/12/25 05:33:04;;;;;;;;;24.00;21.00;;;;;12.95;81.46;100757.25;5059728;28;45357;-73
2022/12/25 05:35:29;;;;;;;;;21.33;19.33;;;;;12.53;81.39;100682.50;5059315;28;46051;-74
2022/12/25 05:37:55;;;;;;;;;18.33;16.33;;;;;12.93;81.17;100733.41;5059349;28;45491;-71
2022/12/25 05:40:20;;;;;;;;;26.00;25.00;;;;;12.92;81.56;100741.56;5059480;28;45267;-72
2022/12/25 05:42:45;;;;;;;;;21.67;20.33;;;;;12.90;81.83;100764.91;5059633;28;45490;-72
2022/12/25 05:45:11;;;;;;;;;19.00;18.33;;;;;12.92;81.79;100771.75;5040938;28;48697;-72
2022/12/25 05:47:37;;;;;;;;;18.33;18.00;;;;;12.70;81.65;100721.59;5059361;28;45316;-72
2022/12/25 05:50:03;;;;;;;;;22.33;20.33;;;;;12.83;81.30;100738.03;5041311;28;45534;-72
2022/12/25 05:52:33;;;;;;;;;24.67;23.00;;;;;13.03;81.24;100760.81;5059513;28;45291;-73
2022/12/25 05:54:59;;;;;;;;;21.33;19.67;;;;;13.01;81.27;100757.47;5059148;28;45706;-72
2022/12/25 05:57:27;;;;;;;;;21.33;16.00;;;;;12.01;81.24;100591.88;5061801;28;45511;-71
2022/12/25 05:59:52;;;;;;;;;23.00;21.33;;;;;12.91;81.38;100734.56;5060478;28;45545;-74
2022/12/25 06:02:18;;;;;;;;;26.33;23.33;;;;;12.29;81.36;100633.38;5058966;28;45237;-73
2022/12/25 06:04:43;;;;;;;;;22.67;19.33;;;;;13.02;81.36;100748.47;5058867;28;45614;-73
2022/12/25 06:07:08;;;;;;;;;22.00;20.67;;;;;12.96;81.65;100733.06;5040881;28;45329;-73
2022/12/25 06:09:34;;;;;;;;;24.33;22.67;;;;;13.03;81.24;100744.81;5059105;28;45439;-73
2022/12/25 06:11:59;;;;;;;;;24.67;21.67;;;;;12.85;81.20;100704.03;5059085;28;45560;-71
2022/12/25 06:14:24;;;;;;;;;23.00;21.67;;;;;12.60;81.12;100662.19;5058695;28;45924;-72
2022/12/25 06:16:51;;;;;;;;;19.67;19.67;;;;;12.86;80.77;100694.19;5058688;28;45363;-72
2022/12/25 06:19:18;;;;;;;;;20.33;17.67;;;;;12.60;80.82;100640.84;5058978;28;45392;-74
2022/12/25 06:21:43;;;;;;;;;24.00;21.67;;;;;13.06;80.88;100712.44;5058920;28;45542;-72
2022/12/25 06:24:08;;;;;;;;;28.00;23.00;;;;;13.06;80.94;100720.47;5058626;28;46290;-71
2022/12/25 06:26:34;;;;;;;;;21.00;19.00;;;;;12.99;81.42;100706.06;5058735;28;45296;-70
2022/12/25 06:28:59;;;;;;;;;23.67;20.00;;;;;12.82;81.02;100671.50;5058786;28;45725;-71
2022/12/25 06:31:24;;;;;;;;;19.33;17.33;;;;;12.61;80.97;100638.03;5058914;28;45288;-73
2022/12/25 06:33:50;;;;;;;;;20.67;19.33;;;;;12.87;80.97;100670.00;5058369;28;45527;-74
2022/12/25 06:36:18;;;;;;;;;19.67;19.67;;;;;12.48;80.82;100598.47;5040211;28;45150;-74
2022/12/25 06:38:44;;;;;;;;;18.33;18.00;;;;;11.05;80.44;100386.91;5058603;28;45181;-73
2022/12/25 06:41:12;;;;;;;;;24.33;17.00;;;;;12.94;80.96;100688.88;5058478;28;45394;-71
2022/12/25 06:43:38;;;;;;;;;25.33;19.33;;;;;12.91;80.84;100671.34;5057987;28;46232;-73
2022/12/25 06:46:06;;;;;;;;;17.33;17.33;;;;;13.00;80.81;100682.88;5058410;28;45373;-72
2022/12/25 06:48:32;;;;;;;;;15.67;14.33;;;;;12.88;80.49;100662.84;5058179;28;45291;-72
2022/12/25 06:50:58;;;;;;;;;19.00;18.00;;;;;12.88;80.71;100668.16;5040467;28;45356;-73
2022/12/25 06:53:23;;;;;;;;;17.00;17.00;;;;;12.30;80.77;100576.41;5058269;28;45729;-73
2022/12/25 06:55:48;;;;;;;;;17.67;16.67;;;;;12.11;80.79;100550.81;5058348;28;45476;-72
2022/12/25 06:58:14;;;;;;;;;18.67;16.33;;;;;12.92;81.08;100694.38;5040152;28;45408;-74
2022/12/25 07:00:39;;;;;;;;;20.00;15.33;;;;;12.70;80.74;100649.59;5058356;28;45310;-72
2022/12/25 07:03:04;;;;;;;;;14.33;14.33;;;;;12.57;80.84;100643.84;5058147;28;46601;-73
2022/12/25 07:05:30;;;;;;;;;15.00;15.00;;;;;12.90;80.59;100704.38;5058108;28;45320;-72
2022/12/25 07:07:55;;;;;;;;;18.33;16.67;;;;;12.71;80.87;100685.94;5040068;28;45369;-73
2022/12/25 07:10:20;;;;;;;;;12.00;12.00;;;;;12.77;80.83;100691.47;5040646;28;45609;-72
2022/12/25 07:12:46;;;;;;;;;15.00;13.33;;;;;12.51;80.84;100652.50;5058524;28;49346;-73
2022/12/25 07:15:11;;;;;;;;;12.33;12.33;;;;;12.54;80.65;100654.84;5056712;28;54172;-72
2022/12/25 07:17:36;;;;;;;;;16.33;16.33;;;;;12.59;80.80;100649.84;5057993;28;45316;-74
2022/12/25 07:20:02;;;;;;;;;13.00;11.67;;;;;12.93;80.39;100696.03;5058101;28;45462;-73
2022/12/25 07:22:29;;;;;;;;;15.00;13.67;;;;;12.85;80.31;100682.66;5039620;28;47480;-73
2022/12/25 07:24:54;;;;;;;;;14.33;13.00;;;;;12.85;80.31;100665.81;5058002;28;45276;-72
2022/12/25 07:27:19;;;;;;;;;16.00;15.00;;;;;12.93;80.20;100665.84;5058134;28;45530;-73
2022/12/25 07:29:45;;;;;;;;;15.00;14.00;;;;;12.93;80.26;100663.19;5058153;28;45174;-72
2022/12/25 07:32:11;;;;;;;;;14.00;13.33;;;;;12.89;80.30;100636.00;5057315;28;56164;-72
2022/12/25 07:34:36;;;;;;;;;14.67;13.00;;;;;12.59;80.37;100585.84;5056993;28;60477;-73
2022/12/25 07:37:02;;;;;;;;;15.00;13.67;;;;;12.52;80.43;100579.50;5057977;28;45237;-73
2022/12/25 07:39:27;;;;;;;;;15.00;14.00;;;;;12.91;79.82;100627.81;5057768;28;45479;-71
2022/12/25 07:41:53;;;;;;;;;17.00;13.33;;;;;12.85;79.67;100628.47;5057127;28;46977;-71
2022/12/25 07:44:18;;;;;;;;;14.00;13.00;;;;;12.82;80.05;100620.81;5057417;28;45471;-72
2022/12/25 07:46:44;;;;;;;;;14.67;13.67;;;;;12.69;79.77;100599.91;5057620;28;45451;-73
2022/12/25 07:49:10;;;;;;;;;10.67;9.00;;;;;11.60;80.78;100418.47;5057945;28;45248;-72
2022/12/25 07:51:36;;;;;;;;;17.00;15.33;;;;;12.41;80.40;100572.59;5057219;28;45586;-72
2022/12/25 07:54:01;;;;;;;;;16.00;14.00;;;;;12.18;80.51;100567.84;5040533;28;45432;-73
2022/12/25 07:56:27;;;;;;;;;15.67;14.67;;;;;12.48;80.75;100630.47;5058051;28;45403;-73
2022/12/25 07:58:52;;;;;;;;;15.67;15.00;;;;;12.58;80.60;100653.50;5057514;28;45510;-72
2022/12/25 08:01:21;;;;;;;;;18.00;16.33;;;;;12.42;80.23;100628.47;5057059;28;46480;-72
2022/12/25 08:03:51;;;;;;;;;15.00;15.00;;;;;12.55;80.42;100667.16;5057099;28;45555;-73
2022/12/25 08:06:17;;;;;;;;;18.67;14.67;;;;;12.56;80.39;100666.19;5057354;28;45426;-71
2022/12/25 08:08:42;;;;;;;;;15.00;14.33;;;;;12.56;80.66;100655.50;5039096;28;45354;-72
2022/12/25 08:11:08;;;;;;;;;13.67;13.33;;;;;12.24;80.03;100598.38;5057106;28;46280;-72
2022/12/25 08:13:34;;;;;;;;;17.33;13.33;;;;;11.86;79.81;100530.38;5042210;28;45558;-72
2022/12/25 08:16:01;;;;;;;;;11.67;11.67;;;;;12.49;80.17;100645.47;5077077;27;45477;-72
2022/12/25 08:18:28;;;;;;;;;15.33;13.67;;;;;12.34;80.03;100635.56;5077677;28;45441;-73
2022/12/25 08:20:53;;;;;;;;;10.33;10.00;;;;;12.63;80.19;100677.91;5075876;28;47699;-72
2022/12/25 08:23:19;;;;;;;;;16.33;15.33;;;;;12.65;79.53;100675.91;5077439;28;45258;-72
2022/12/25 08:25:44;;;;;;;;;16.67;13.00;;;;;12.71;79.55;100672.59;5078178;28;45231;-74
2022/12/25 08:28:09;;;;;;;;;15.33;15.33;;;;;12.64;79.02;100663.56;5081121;27;45288;-73
2022/12/25 08:30:37;;;;;;;;;12.00;10.00;;;;;12.73;79.51;100683.94;5080801;28;45831;-72
2022/12/25 08:33:03;;;;;;;;;12.00;10.33;;;;;12.56;78.86;100634.16;5080683;27;45341;-73
2022/12/25 08:35:28;;;;;;;;;13.00;12.67;;;;;12.47;79.26;100622.66;5080867;27;45438;-73
2022/12/25 08:37:53;;;;;;;;;13.33;12.67;;;;;12.31;78.93;100594.06;5079360;28;45353;-75
2022/12/25 08:40:19;;;;;;;;;11.00;9.33;;;;;12.37;78.80;100625.41;5080581;27;46390;-72
2022/12/25 08:42:44;;;;;;;;;12.67;12.33;;;;;12.30;78.66;100615.56;5080318;28;45327;-73
2022/12/25 08:45:10;;;;;;;;;13.00;12.33;;;;;12.54;78.94;100633.50;5080833;27;45389;-73
2022/12/25 08:47:35;;;;;;;;;11.33;11.33;;;;;11.80;79.07;100515.81;5079420;28;45288;-72
2022/12/25 08:50:00;;;;;;;;;16.67;14.67;;;;;12.55;79.10;100648.50;5080499;27;45661;-72
2022/12/25 08:52:27;;;;;;;;;13.00;11.67;;;;;12.42;79.07;100612.47;5079168;27;45236;-72
2022/12/25 08:54:53;;;;;;;;;15.00;11.67;;;;;11.58;78.57;100463.91;5081077;28;45248;-74
2022/12/25 08:57:18;;;;;;;;;15.33;13.00;;;;;11.94;79.06;100516.25;5080445;27;45601;-73
2022/12/25 08:59:43;;;;;;;;;13.00;13.00;;;;;12.72;78.51;100647.59;5078837;28;48500;-72
2022/12/25 09:02:11;;;;;;;;;13.67;12.33;;;;;12.33;78.10;100602.72;5080261;27;45612;-73
2022/12/25 09:04:36;;;;;;;;;12.00;11.00;;;;;12.82;77.87;100661.66;5079006;28;45420;-71
2022/12/25 09:07:01;;;;;;;;;8.67;8.33;;;;;12.68;77.45;100644.41;5080520;27;45370;-72
2022/12/25 09:09:27;;;;;;;;;13.33;11.00;;;;;12.83;77.35;100657.16;5080131;28;46350;-73
2022/12/25 09:11:53;;;;;;;;;12.00;11.00;;;;;12.87;77.29;100654.00;5080578;27;45773;-74
2022/12/25 09:14:18;;;;;;;;;12.67;11.33;;;;;12.46;77.02;100595.16;5070671;27;45427;-72
2022/12/25 09:16:44;;;;;;;;;12.00;11.67;;;;;12.32;77.00;100576.25;5060029;28;45332;-73
2022/12/25 09:19:09;;;;;;;;;10.33;10.33;;;;;11.98;76.96;100522.91;5041316;28;47812;-72
2022/12/25 09:21:35;;;;;;;;;11.33;11.33;;;;;12.51;76.98;100617.81;5059528;28;45467;-71
2022/12/25 09:24:02;;;;;;;;;12.33;12.33;;;;;10.88;76.28;100361.16;5059697;28;45234;-72
2022/12/25 09:26:27;;;;;;;;;14.00;13.00;;;;;12.54;76.68;100637.00;5059889;28;45431;-73
2022/12/25 09:28:53;;;;;;;;;16.33;12.67;;;;;12.65;76.60;100675.91;5059361;28;45333;-71
2022/12/25 09:31:20;;;;;;;;;8.33;8.33;;;;;12.66;76.95;100683.75;5060611;28;45368;-73
2022/12/25 09:33:45;;;;;;;;;11.00;10.00;;;;;11.07;76.70;100435.47;5059003;28;45348;-72
2022/12/25 09:36:10;;;;;;;;;11.00;11.00;;;;;12.49;76.48;100650.81;5059407;28;45553;-74
2022/12/25 09:38:36;;;;;;;;;10.67;9.33;;;;;12.53;76.42;100679.84;5058990;28;55462;-75
2022/12/25 09:41:04;;;;;;;;;8.00;5.67;;;;;12.51;76.70;100647.16;5041356;28;45455;-71
2022/12/25 09:43:36;;;;;;;;;10.33;8.67;;;;;12.38;76.85;100636.91;5059208;28;45333;-74
2022/12/25 09:46:03;;;;;;;;;11.33;9.00;;;;;12.19;76.33;100605.97;5059406;28;45526;-73
2022/12/25 09:48:34;;;;;;;;;9.67;9.67;;;;;12.44;76.76;100645.13;5059140;28;45831;-72
2022/12/25 09:51:08;;;;;;;;;10.67;9.00;;;;;12.41;76.32;100631.25;5058791;28;45227;-73
2022/12/25 09:53:42;;;;;;;;;12.33;11.33;;;;;11.91;77.17;100581.34;5059300;28;45382;-72
2022/12/25 09:56:24;;;;;;;;;12.67;11.00;;;;;12.37;77.27;100668.06;5059333;28;45208;-73
2022/12/25 09:58:50;;;;;;;;;9.33;9.33;;;;;11.87;77.20;100579.97;5040447;28;47795;-72
2022/12/25 10:01:56;;;;;;;;;11.00;9.33;;;;;12.50;76.86;100667.66;5058640;28;45249;-73
2022/12/25 10:04:57;;;;;;;;;11.33;10.33;;;;;12.24;76.43;100630.34;5056464;28;45555;-72
2022/12/25 10:07:45;;;;;;;;;11.33;11.33;;;;;12.60;76.13;100659.53;5059156;28;45288;-74
2022/12/25 10:10:17;;;;;;;;;10.67;10.00;;;;;12.61;76.37;100654.03;5047437;28;46471;-72
2022/12/25 10:13:15;;;;;;;;;10.67;9.67;;;;;11.78;75.79;100516.94;5058660;28;45351;-73
2022/12/25 10:16:17;;;;;;;;;11.00;10.67;;;;;12.62;76.06;100654.91;5060954;28;45309;-72
2022/12/25 10:19:13;;;;;;;;;10.67;10.67;;;;;12.70;75.96;100641.59;5079164;28;45345;-72
2022/12/25 10:21:40;;;;;;;;;3.00;3.00;;;;;12.70;75.37;100625.56;5060762;28;47246;-74
2022/12/25 10:24:21;;;;;;;;;11.33;10.00;;;;;12.25;75.18;100564.56;5079164;28;45331;-74
2022/12/25 10:26:49;;;;;;;;;9.00;7.67;;;;;11.96;74.91;100514.25;5079313;28;45327;-73
2022/12/25 10:29:20;;;;;;;;;8.33;8.33;;;;;12.77;75.17;100626.59;5079150;28;45455;-75
2022/12/25 10:31:48;;;;;;;;;10.33;9.33;;;;;12.60;74.84;100619.53;5078852;28;45789;-72
2022/12/25 10:34:14;;;;;;;;;10.00;10.00;;;;;12.57;74.54;100604.69;5060083;28;45545;-73
2022/12/25 10:36:42;;;;;;;;;12.00;10.67;;;;;12.79;74.52;100630.78;5077431;28;45392;-72
2022/12/25 10:39:16;;;;;;;;;8.67;8.67;;;;;12.77;74.33;100632.75;5078826;28;45638;-72
2022/12/25 10:42:29;;;;;;;;;10.00;9.00;;;;;12.76;74.61;100646.28;5076494;28;47606;-73
2022/12/25 10:44:57;;;;;;;;;9.33;9.33;;;;;12.84;74.64;100653.50;5059444;28;45497;-71
2022/12/25 10:47:25;;;;;;;;;11.33;10.33;;;;;12.88;74.35;100641.50;5078755;28;45236;-73
2022/12/25 10:49:51;;;;;;;;;13.33;12.67;;;;;12.83;74.22;100607.31;5078187;28;45526;-74
2022/12/25 10:52:23;;;;;;;;;11.00;11.00;;;;;12.97;74.10;100617.31;5059871;28;46841;-73
2022/12/25 10:54:49;;;;;;;;;12.67;11.67;;;;;12.97;74.10;100612.00;5078692;28;45286;-73
2022/12/25 10:57:17;;;;;;;;;10.00;10.00;;;;;13.01;73.81;100624.03;5077610;28;45242;-72
2022/12/25 10:59:55;;;;;;;;;12.67;12.67;;;;;12.63;73.64;100555.22;5060481;28;45485;-73
2022/12/25 11:02:26;;;;;;;;;13.00;11.00;;;;;13.07;73.88;100649.22;5078309;28;45843;-73
2022/12/25 11:05:08;;;;;;;;;14.00;11.67;;;;;13.15;73.27;100637.72;5077997;28;45403;-73
2022/12/25 11:07:45;;;;;;;;;15.67;14.33;;;;;12.82;73.15;100554.09;5079339;28;45345;-73
2022/12/25 11:10:42;;;;;;;;;14.00;12.33;;;;;13.24;72.48;100628.78;5078598;28;45539;-71
2022/12/25 11:13:29;;;;;;;;;13.00;13.00;;;;;13.23;72.57;100601.25;5071770;28;46603;-72
2022/12/25 11:16:01;;;;;;;;;10.33;10.33;;;;;13.29;72.26;100605.94;5057308;28;45383;-72
2022/12/25 11:18:31;;;;;;;;;9.67;9.33;;;;;13.33;72.37;100617.94;5057870;28;45320;-73
2022/12/25 11:21:02;;;;;;;;;12.33;10.67;;;;;12.65;71.94;100518.53;5057959;28;45266;-71
2022/12/25 11:23:30;;;;;;;;;12.00;10.67;;;;;12.80;72.42;100522.22;5057926;28;45716;-73
2022/12/25 11:26:05;;;;;;;;;9.00;8.67;;;;;12.59;72.28;100497.84;5057535;28;45273;-73
2022/12/25 11:28:33;;;;;;;;;13.00;11.67;;;;;13.40;72.38;100639.47;5058162;28;45488;-74
2022/12/25 11:31:04;;;;;;;;;14.67;11.33;;;;;13.15;72.47;100624.38;5058048;28;45570;-74
2022/12/25 11:33:36;;;;;;;;;9.33;9.33;;;;;13.29;72.22;100637.97;5057374;28;46512;-71
2022/12/25 11:36:12;;;;;;;;;10.33;10.33;;;;;13.19;72.25;100625.75;5057471;28;45326;-74
2022/12/25 11:38:38;;;;;;;;;13.00;12.33;;;;;12.98;72.00;100592.31;5039394;28;45344;-72
2022/12/25 11:41:04;;;;;;;;;2.67;2.67;;;;;13.40;72.57;100667.00;5057600;28;45408;-73
2022/12/25 11:43:40;;;;;;;;;12.67;10.67;;;;;13.11;72.60;100618.53;5057443;28;45597;-75
2022/12/25 11:46:36;;;;;;;;;8.33;8.00;;;;;13.44;72.40;100675.56;5057246;28;45222;-71
2022/12/25 11:49:07;;;;;;;;;10.67;9.67;;;;;13.15;72.10;100625.22;5057280;28;45173;-75
2022/12/25 11:51:36;;;;;;;;;10.67;10.67;;;;;13.38;71.86;100670.84;5057517;28;45304;-74
2022/12/25 11:54:25;;;;;;;;;10.00;8.67;;;;;12.65;72.42;100539.88;5039015;28;48066;-73
2022/12/25 11:56:52;;;;;;;;;12.33;10.67;;;;;13.28;72.42;100643.47;5057086;28;45302;-71
2022/12/25 11:59:25;;;;;;;;;10.67;9.67;;;;;13.04;72.17;100572.16;5038786;28;45526;-72
2022/12/25 12:02:12;;;;;;;;;14.33;11.00;;;;;13.17;72.49;100591.19;5039274;28;45355;-71
2022/12/25 12:04:41;;;;;;;;;10.33;10.00;;;;;13.05;72.20;100581.84;5056762;28;47936;-72
2022/12/25 12:07:20;;;;;;;;;8.67;8.67;;;;;13.21;72.64;100605.88;5057046;28;45495;-74
2022/12/25 12:09:58;;;;;;;;;11.67;11.00;;;;;13.44;72.57;100630.16;5038937;28;45478;-72
2022/12/25 12:12:49;;;;;;;;;12.00;10.67;;;;;13.46;72.42;100613.97;5057214;28;45531;-73
2022/12/25 12:15:28;;;;;;;;;10.33;8.33;;;;;13.45;72.50;100615.78;5027446;28;46588;-75
2022/12/25 12:17:53;;;;;;;;;9.00;7.67;;;;;13.35;71.95;100588.41;5056805;28;45514;-74
2022/12/25 12:20:29;;;;;;;;;9.50;7.50;;;;;12.72;72.33;100493.72;5056743;28;46033;-72
2022/12/25 12:22:55;;;;;;;;;7.67;7.67;;;;;13.42;71.64;100588.59;5057345;28;45550;-71
2022/12/25 12:25:21;;;;;;;;;10.00;8.67;;;;;13.29;71.91;100570.38;5056980;28;46450;-73
2022/12/25 12:27:54;;;;;;;;;8.67;8.67;;;;;13.32;71.77;100573.56;5057087;28;45643;-73
2022/12/25 12:30:25;;;;;;;;;6.67;6.67;;;;;12.97;71.81;100499.91;5056937;28;45668;-74
2022/12/25 12:32:54;;;;;;;;;10.00;10.00;;;;;12.73;71.40;100452.69;5057345;28;45519;-73
2022/12/25 12:35:47;;;;;;;;;8.67;7.67;;;;;13.55;71.62;100576.38;5057025;28;46542;-72
2022/12/25 12:38:17;;;;;;;;;7.33;7.33;;;;;13.59;71.61;100574.22;5053151;28;45301;-73
2022/12/25 12:41:05;;;;;;;;;11.33;9.33;;;;;13.56;71.46;100571.88;5057174;28;45375;-72
2022/12/25 12:43:45;;;;;;;;;12.33;12.00;;;;;13.52;71.18;100587.41;5056722;28;45475;-73
2022/12/25 12:46:16;;;;;;;;;10.00;9.00;;;;;13.64;71.14;100610.13;5038006;28;47829;-72
2022/12/25 12:48:45;;;;;;;;;9.00;8.33;;;;;13.50;70.71;100593.94;5056295;28;45457;-73
2022/12/25 12:51:25;;;;;;;;;9.00;9.00;;;;;13.44;70.86;100551.88;5038377;28;45405;-73
2022/12/25 12:54:05;;;;;;;;;12.33;12.33;;;;;12.94;70.64;100473.56;5056792;28;45378;-72
2022/12/25 12:56:31;;;;;;;;;8.67;8.00;;;;;13.65;70.92;100579.75;5056447;28;45697;-73
2022/12/25 12:58:56;;;;;;;;;7.67;7.67;;;;;13.40;70.12;100529.97;5056481;28;45273;-71
2022/12/25 13:01:35;;;;;;;;;10.00;10.00;;;;;13.79;70.57;100582.72;5056554;28;45357;-72